Time;durP1;ratioP1;P1;durP2;ratioP2;P2;SDS_P1;SDS_P2;PMS_P1;PMS_P2;Temp;Humidity;BMP_temperature;BMP_pressure;BME280_temperature;BME280_humidity;BME280_pressure;Samples;Min_cycle;Max_cycle;Signal;HPM_P1;HPM_P2
2022/07/01 00:01:55;;;;;;;3.20;1.47;;;;;;;;;;5080578;28;20308;-74
2022/07/01 00:04:25;;;;;;;3.83;1.30;;;;;;;;;;5065117;28;20657;-74
2022/07/01 00:06:52;;;;;;;2.67;1.47;;;;;;;;;;5069121;28;20201;-75
2022/07/01 00:09:19;;;;;;;1.63;1.30;;;;;;;;;;5073680;28;20296;-75
2022/07/01 00:11:46;;;;;;;3.50;1.53;;;;;;;;;;5072770;28;20288;-75
2022/07/01 00:14:14;;;;;;;2.27;1.37;;;;;;;;;;5061207;28;20225;-74
2022/07/01 00:16:41;;;;;;;2.23;1.70;;;;;;;;;;5055714;28;20289;-75
2022/07/01 00:19:09;;;;;;;3.33;1.60;;;;;;;;;;5060161;28;20289;-76
2022/07/01 00:21:37;;;;;;;4.17;1.73;;;;;;;;;;5065144;28;20324;-75
2022/07/01 00:24:04;;;;;;;4.43;1.70;;;;;;;;;;5068337;28;20278;-74
2022/07/01 00:26:32;;;;;;;2.33;1.43;;;;;;;;;;5060125;28;20210;-74
2022/07/01 00:28:59;;;;;;;2.30;1.40;;;;;;;;;;5064708;28;20291;-75
2022/07/01 00:31:26;;;;;;;3.10;1.47;;;;;;;;;;5054436;28;20290;-75
2022/07/01 00:33:53;;;;;;;2.70;1.30;;;;;;;;;;5082866;28;20219;-75
2022/07/01 00:36:22;;;;;;;2.43;1.40;;;;;;;;;;5087019;28;20229;-75
2022/07/01 00:38:49;;;;;;;2.37;1.33;;;;;;;;;;5080371;28;20241;-75
2022/07/01 00:41:17;;;;;;;2.97;1.17;;;;;;;;;;5073448;28;20644;-74
2022/07/01 00:43:44;;;;;;;1.63;1.20;;;;;;;;;;5065507;28;20197;-74
2022/07/01 00:46:11;;;;;;;2.90;1.30;;;;;;;;;;5073321;28;20207;-74
2022/07/01 00:48:39;;;;;;;2.97;1.80;;;;;;;;;;5072531;28;20242;-75
2022/07/01 00:51:06;;;;;;;5.97;1.90;;;;;;;;;;5075162;28;20326;-75
2022/07/01 00:53:35;;;;;;;3.23;1.37;;;;;;;;;;5061963;28;20220;-75
2022/07/01 00:56:02;;;;;;;2.33;1.20;;;;;;;;;;5060198;28;20195;-75
2022/07/01 00:58:31;;;;;;;1.40;0.93;;;;;;;;;;5072348;28;20234;-75
2022/07/01 01:00:58;;;;;;;3.37;1.20;;;;;;;;;;5064771;28;20229;-75
2022/07/01 01:03:26;;;;;;;2.27;1.13;;;;;;;;;;5072318;28;20199;-75
2022/07/01 01:05:54;;;;;;;2.57;1.20;;;;;;;;;;5068208;28;20237;-75
2022/07/01 01:08:22;;;;;;;2.83;1.40;;;;;;;;;;5075082;28;20209;-75
2022/07/01 01:10:50;;;;;;;2.03;1.50;;;;;;;;;;5091038;28;20303;-75
2022/07/01 01:13:17;;;;;;;2.20;1.20;;;;;;;;;;5081599;28;20310;-75
2022/07/01 01:15:44;;;;;;;1.97;1.40;;;;;;;;;;5075348;28;20284;-75
2022/07/01 01:18:13;;;;;;;2.33;1.50;;;;;;;;;;5078394;28;20203;-75
2022/07/01 01:20:41;;;;;;;1.87;1.50;;;;;;;;;;5085772;28;20283;-75
2022/07/01 01:23:09;;;;;;;2.33;1.53;;;;;;;;;;5070867;28;20310;-75
2022/07/01 01:25:36;;;;;;;1.80;1.33;;;;;;;;;;5058268;28;21647;-75
2022/07/01 01:28:03;;;;;;;1.77;1.20;;;;;;;;;;5087696;28;20299;-75
2022/07/01 01:30:31;;;;;;;1.70;1.30;;;;;;;;;;5082469;28;20239;-75
2022/07/01 01:32:58;;;;;;;1.97;1.20;;;;;;;;;;5059765;28;20290;-75
2022/07/01 01:35:25;;;;;;;1.73;1.20;;;;;;;;;;5085224;28;20210;-75
2022/07/01 01:37:54;;;;;;;2.70;1.30;;;;;;;;;;5055587;28;20310;-75
2022/07/01 01:40:21;;;;;;;1.50;1.23;;;;;;;;;;5063128;28;20238;-75
2022/07/01 01:42:48;;;;;;;2.20;1.30;;;;;;;;;;5084051;28;20309;-75
2022/07/01 01:45:15;;;;;;;1.43;1.13;;;;;;;;;;5094296;28;20286;-74
2022/07/01 01:47:43;;;;;;;2.20;1.40;;;;;;;;;;5094920;28;20645;-74
2022/07/01 01:50:11;;;;;;;2.23;1.30;;;;;;;;;;5076937;28;20306;-74
2022/07/01 01:52:42;;;;;;;3.03;1.90;;;;;;;;;;5070327;28;20326;-75
2022/07/01 01:55:11;;;;;;;2.70;1.60;;;;;;;;;;5054689;28;20195;-74
2022/07/01 01:57:38;;;;;;;3.70;1.80;;;;;;;;;;5056542;28;20204;-74
2022/07/01 02:00:07;;;;;;;4.33;1.90;;;;;;;;;;5054421;28;20446;-76
2022/07/01 02:02:36;;;;;;;2.43;1.80;;;;;;;;;;5054412;28;20200;-76
2022/07/01 02:05:03;;;;;;;3.27;2.03;;;;;;;;;;5070598;28;20230;-76
2022/07/01 02:07:30;;;;;;;3.47;1.70;;;;;;;;;;5067463;28;21034;-76
2022/07/01 02:09:58;;;;;;;2.60;1.97;;;;;;;;;;5074161;28;20291;-76
2022/07/01 02:12:26;;;;;;;2.93;1.90;;;;;;;;;;5080856;28;20750;-74
2022/07/01 02:14:53;;;;;;;3.17;1.80;;;;;;;;;;5062417;28;20291;-76
2022/07/01 02:17:21;;;;;;;2.30;1.93;;;;;;;;;;5094157;28;20293;-76
2022/07/01 02:19:48;;;;;;;5.27;1.90;;;;;;;;;;5086617;28;20763;-75
2022/07/01 02:22:15;;;;;;;2.63;2.10;;;;;;;;;;5072562;28;20290;-76
2022/07/01 02:24:43;;;;;;;2.97;1.80;;;;;;;;;;5077204;28;20241;-74
2022/07/01 02:27:12;;;;;;;1.90;1.57;;;;;;;;;;5067448;28;20571;-76
2022/07/01 02:29:41;;;;;;;1.97;1.70;;;;;;;;;;5053675;28;20227;-73
2022/07/01 02:32:08;;;;;;;4.13;2.10;;;;;;;;;;5067830;28;20242;-75
2022/07/01 02:34:36;;;;;;;2.07;1.70;;;;;;;;;;5077709;28;20285;-75
2022/07/01 02:37:03;;;;;;;2.23;1.70;;;;;;;;;;5057873;28;20227;-75
2022/07/01 02:39:30;;;;;;;2.10;1.63;;;;;;;;;;5067753;28;20292;-75
2022/07/01 02:44:43;;;;;;;2.47;1.80;;;;;;;;;;5060424;28;20235;-75
2022/07/01 02:47:11;;;;;;;2.70;1.87;;;;;;;;;;5070599;28;20282;-75
2022/07/01 02:49:39;;;;;;;2.80;1.70;;;;;;;;;;5065168;28;20299;-75
2022/07/01 02:52:06;;;;;;;3.83;1.70;;;;;;;;;;5091752;28;20226;-75
2022/07/01 02:54:33;;;;;;;3.73;2.00;;;;;;;;;;5080431;28;20262;-75
2022/07/01 02:57:01;;;;;;;2.20;1.63;;;;;;;;;;5070856;28;20281;-75
2022/07/01 02:59:28;;;;;;;4.47;1.67;;;;;;;;;;5065510;28;20207;-75
2022/07/01 03:01:57;;;;;;;1.80;1.53;;;;;;;;;;5073029;28;20206;-75
2022/07/01 03:04:24;;;;;;;2.47;1.43;;;;;;;;;;5073376;28;20330;-75
2022/07/01 03:06:51;;;;;;;3.30;1.60;;;;;;;;;;5074814;28;20210;-75
2022/07/01 03:09:19;;;;;;;5.33;1.80;;;;;;;;;;5057657;28;20279;-75
2022/07/01 03:11:46;;;;;;;4.37;2.40;;;;;;;;;;5068417;28;20226;-75
2022/07/01 03:14:13;;;;;;;3.07;1.97;;;;;;;;;;5066591;28;20283;-75
2022/07/01 03:16:41;;;;;;;2.00;1.80;;;;;;;;;;5064789;28;20875;-75
2022/07/01 03:19:10;;;;;;;3.80;1.70;;;;;;;;;;5062221;28;20322;-75
2022/07/01 03:21:37;;;;;;;1.83;1.60;;;;;;;;;;5065464;28;20199;-75
2022/07/01 03:24:04;;;;;;;2.43;1.53;;;;;;;;;;5075191;28;20556;-75
2022/07/01 03:26:31;;;;;;;4.13;1.87;;;;;;;;;;5069128;28;20679;-75
2022/07/01 03:28:59;;;;;;;3.77;1.53;;;;;;;;;;5073979;28;20740;-75
2022/07/01 03:31:26;;;;;;;4.67;1.90;;;;;;;;;;5092209;28;20201;-75
2022/07/01 03:33:53;;;;;;;3.50;2.30;;;;;;;;;;5071753;28;20224;-76
2022/07/01 03:36:21;;;;;;;4.00;2.30;;;;;;;;;;5073587;28;20287;-76
2022/07/01 03:38:49;;;;;;;3.37;2.30;;;;;;;;;;5068369;28;20250;-75
2022/07/01 03:41:16;;;;;;;3.27;2.07;;;;;;;;;;5073609;28;20230;-75
2022/07/01 03:43:43;;;;;;;4.63;2.33;;;;;;;;;;5061092;28;20303;-75
2022/07/01 03:46:12;;;;;;;5.03;2.50;;;;;;;;;;5070281;28;20294;-75
2022/07/01 03:48:39;;;;;;;4.33;2.77;;;;;;;;;;5064449;28;20204;-76
2022/07/01 03:51:07;;;;;;;3.67;2.53;;;;;;;;;;5057823;28;20289;-76
2022/07/01 03:56:20;;;;;;;3.13;2.60;;;;;;;;;;5080340;28;20334;-76
2022/07/01 03:58:48;;;;;;;3.50;2.63;;;;;;;;;;5064906;28;20289;-76
2022/07/01 04:01:15;;;;;;;3.03;2.50;;;;;;;;;;5069259;28;20276;-76
2022/07/01 04:03:42;;;;;;;4.07;2.40;;;;;;;;;;5071903;28;20796;-76
2022/07/01 04:06:09;;;;;;;3.10;2.27;;;;;;;;;;5088817;28;20299;-76
2022/07/01 04:08:38;;;;;;;3.20;2.43;;;;;;;;;;5067892;28;20227;-76
2022/07/01 04:11:08;;;;;;;3.43;2.20;;;;;;;;;;5072428;28;20223;-76
2022/07/01 04:13:36;;;;;;;3.20;2.30;;;;;;;;;;5065232;28;20243;-76
2022/07/01 04:16:04;;;;;;;2.67;2.33;;;;;;;;;;5066074;28;20205;-76
2022/07/01 04:18:31;;;;;;;4.47;2.60;;;;;;;;;;5069078;28;20241;-75
2022/07/01 04:23:45;;;;;;;3.43;1.90;;;;;;;;;;5081558;28;20238;-76
2022/07/01 04:26:12;;;;;;;4.60;1.80;;;;;;;;;;5082119;28;20297;-76
2022/07/01 04:28:39;;;;;;;1.93;1.70;;;;;;;;;;5061245;28;20243;-75
2022/07/01 04:31:06;;;;;;;2.10;1.87;;;;;;;;;;5083866;28;20281;-75
2022/07/01 04:33:34;;;;;;;2.87;1.77;;;;;;;;;;5071891;28;20232;-76
2022/07/01 04:36:01;;;;;;;4.50;1.87;;;;;;;;;;5052547;28;20242;-76
2022/07/01 04:38:28;;;;;;;3.53;1.93;;;;;;;;;;5055275;28;20671;-76
2022/07/01 04:43:41;;;;;;;6.27;2.43;;;;;;;;;;5068922;28;20216;-76
2022/07/01 04:46:08;;;;;;;3.87;2.50;;;;;;;;;;5071540;28;20299;-76
2022/07/01 04:48:35;;;;;;;5.33;3.03;;;;;;;;;;5062056;28;20279;-75
2022/07/01 04:51:03;;;;;;;3.80;2.83;;;;;;;;;;5072850;28;20328;-76
2022/07/01 04:53:30;;;;;;;5.77;3.63;;;;;;;;;;5068158;28;20700;-76
2022/07/01 04:55:59;;;;;;;6.53;3.33;;;;;;;;;;5052147;28;20206;-75
2022/07/01 04:58:26;;;;;;;3.80;3.20;;;;;;;;;;5052951;28;20247;-76
2022/07/01 05:00:53;;;;;;;3.33;2.67;;;;;;;;;;5072629;28;20286;-76
2022/07/01 05:03:20;;;;;;;3.40;2.87;;;;;;;;;;5092085;28;20285;-75
2022/07/01 05:05:48;;;;;;;3.63;3.20;;;;;;;;;;5070459;28;20316;-75
2022/07/01 05:08:15;;;;;;;3.07;2.73;;;;;;;;;;5070508;28;20242;-76
2022/07/01 05:10:43;;;;;;;2.80;2.60;;;;;;;;;;5058395;28;20203;-74
2022/07/01 05:13:12;;;;;;;3.80;3.00;;;;;;;;;;5060350;28;20204;-76
2022/07/01 05:15:39;;;;;;;4.63;3.00;;;;;;;;;;5091582;28;20299;-76
2022/07/01 05:23:36;;;;;;;3.63;3.20;;;;;;;;;;5080114;28;20201;-76
2022/07/01 05:26:03;;;;;;;4.83;2.70;;;;;;;;;;5074762;28;20209;-75
2022/07/01 05:28:32;;;;;;;3.47;2.57;;;;;;;;;;5082960;28;20199;-75
2022/07/01 05:30:59;;;;;;;3.27;2.83;;;;;;;;;;5079880;28;20569;-75
2022/07/01 05:33:27;;;;;;;7.67;2.73;;;;;;;;;;5076946;28;20308;-76
2022/07/01 05:35:54;;;;;;;4.40;2.70;;;;;;;;;;5063486;28;20204;-74
2022/07/01 05:38:21;;;;;;;2.40;2.13;;;;;;;;;;5073091;28;20289;-74
2022/07/01 05:40:48;;;;;;;3.50;2.37;;;;;;;;;;5068412;28;20261;-74
2022/07/01 05:43:15;;;;;;;2.40;2.00;;;;;;;;;;5069832;28;20203;-75
2022/07/01 05:45:44;;;;;;;3.67;2.00;;;;;;;;;;5062370;28;20310;-74
2022/07/01 05:48:11;;;;;;;3.43;1.70;;;;;;;;;;5054931;28;20306;-76
2022/07/01 05:50:38;;;;;;;1.80;1.63;;;;;;;;;;5066696;28;20326;-74
2022/07/01 05:53:06;;;;;;;2.00;1.37;;;;;;;;;;5070066;28;20738;-76
2022/07/01 05:55:33;;;;;;;3.73;1.90;;;;;;;;;;5058014;28;20237;-73
2022/07/01 05:58:01;;;;;;;3.70;1.97;;;;;;;;;;5065203;28;20203;-76
2022/07/01 06:00:28;;;;;;;3.20;1.93;;;;;;;;;;5064280;28;20210;-76
2022/07/01 06:02:56;;;;;;;5.17;1.80;;;;;;;;;;5078943;28;20282;-76
2022/07/01 06:05:24;;;;;;;5.10;2.27;;;;;;;;;;5071898;28;20222;-76
2022/07/01 06:07:51;;;;;;;2.70;2.00;;;;;;;;;;5065727;28;20205;-76
2022/07/01 06:10:18;;;;;;;5.22;1.98;;;;;;;;;;5071612;28;20290;-76
2022/07/01 06:12:45;;;;;;;3.35;2.08;;;;;;;;;;5073575;28;20290;-73
2022/07/01 06:15:13;;;;;;;5.13;2.10;;;;;;;;;;5074431;28;20286;-76
2022/07/01 06:17:42;;;;;;;5.30;2.00;;;;;;;;;;5068056;28;20206;-76
2022/07/01 06:20:11;;;;;;;3.17;1.83;;;;;;;;;;5076129;28;20623;-76
2022/07/01 06:22:38;;;;;;;5.65;1.65;;;;;;;;;;5069671;28;20246;-75
2022/07/01 06:25:06;;;;;;;4.38;1.80;;;;;;;;;;5081779;28;20302;-76
2022/07/01 06:27:33;;;;;;;2.92;1.42;;;;;;;;;;5064423;28;20278;-76
2022/07/01 06:30:00;;;;;;;4.20;1.73;;;;;;;;;;5076216;28;20227;-76
2022/07/01 06:32:27;;;;;;;3.83;1.55;;;;;;;;;;5071268;28;20274;-76
2022/07/01 06:34:54;;;;;;;3.10;1.50;;;;;;;;;;5065515;28;20279;-76
2022/07/01 06:37:23;;;;;;;3.85;1.38;;;;;;;;;;5063311;28;20293;-76
2022/07/01 06:39:50;;;;;;;4.05;1.42;;;;;;;;;;5072718;28;20306;-76
2022/07/01 06:42:17;;;;;;;3.40;1.38;;;;;;;;;;5066408;28;20228;-76
2022/07/01 06:44:44;;;;;;;4.93;2.15;;;;;;;;;;5059924;28;20260;-76
2022/07/01 06:47:12;;;;;;;5.25;1.40;;;;;;;;;;5090783;28;20202;-76
2022/07/01 06:49:39;;;;;;;3.33;1.20;;;;;;;;;;5072443;28;20982;-76
2022/07/01 06:52:07;;;;;;;3.22;1.30;;;;;;;;;;5083472;28;20280;-76
2022/07/01 06:54:37;;;;;;;3.15;1.10;;;;;;;;;;5075615;28;20203;-76
2022/07/01 06:57:04;;;;;;;4.22;1.35;;;;;;;;;;5071387;28;20199;-76
2022/07/01 06:59:32;;;;;;;4.47;1.17;;;;;;;;;;5072354;28;20234;-76
2022/07/01 07:01:59;;;;;;;4.03;1.20;;;;;;;;;;5075872;28;20274;-77
2022/07/01 07:04:26;;;;;;;2.67;1.05;;;;;;;;;;5066376;28;20291;-76
2022/07/01 07:06:54;;;;;;;2.63;1.13;;;;;;;;;;5066372;28;20706;-77
2022/07/01 07:09:21;;;;;;;2.85;1.20;;;;;;;;;;5076004;28;20194;-77
2022/07/01 07:11:49;;;;;;;2.85;1.30;;;;;;;;;;5085449;28;20784;-77
2022/07/01 07:14:17;;;;;;;2.95;1.20;;;;;;;;;;5069612;28;20295;-77
2022/07/01 07:16:44;;;;;;;3.92;1.35;;;;;;;;;;5052703;28;20231;-77
2022/07/01 07:19:11;;;;;;;6.20;1.20;;;;;;;;;;5054380;28;20239;-77
2022/07/01 07:21:38;;;;;;;3.13;1.30;;;;;;;;;;5057637;28;20203;-76
2022/07/01 07:24:06;;;;;;;3.45;0.95;;;;;;;;;;5072993;28;20271;-77
2022/07/01 07:26:33;;;;;;;3.90;1.02;;;;;;;;;;5072386;28;20312;-77
2022/07/01 07:29:03;;;;;;;2.65;0.95;;;;;;;;;;5059979;28;20287;-77
2022/07/01 07:31:30;;;;;;;3.45;1.00;;;;;;;;;;5078447;28;20252;-78
2022/07/01 07:33:57;;;;;;;3.17;1.20;;;;;;;;;;5085381;28;20625;-78
2022/07/01 07:36:24;;;;;;;3.45;1.15;;;;;;;;;;5075640;28;20241;-77
2022/07/01 07:38:51;;;;;;;3.85;1.10;;;;;;;;;;5072301;28;20302;-78
2022/07/01 07:41:18;;;;;;;2.40;1.20;;;;;;;;;;5071727;28;20231;-77
2022/07/01 07:43:47;;;;;;;2.83;1.10;;;;;;;;;;5071477;28;20238;-77
2022/07/01 07:46:16;;;;;;;4.07;1.10;;;;;;;;;;5071966;28;20693;-77
2022/07/01 07:48:43;;;;;;;3.47;1.25;;;;;;;;;;5063536;28;20204;-77
2022/07/01 07:51:14;;;;;;;3.05;1.25;;;;;;;;;;5061878;28;20227;-77
2022/07/01 07:53:42;;;;;;;3.42;1.05;;;;;;;;;;5069655;28;20231;-75
2022/07/01 07:56:09;;;;;;;2.58;0.80;;;;;;;;;;5065466;28;20203;-75
2022/07/01 07:58:36;;;;;;;4.10;1.00;;;;;;;;;;5068025;28;20310;-77
2022/07/01 08:01:03;;;;;;;2.67;1.02;;;;;;;;;;5067027;28;20622;-76
2022/07/01 08:03:33;;;;;;;4.30;1.10;;;;;;;;;;5060829;28;20584;-77
2022/07/01 08:06:01;;;;;;;3.15;1.00;;;;;;;;;;5059460;28;20269;-77
2022/07/01 08:08:28;;;;;;;3.10;0.77;;;;;;;;;;5061735;28;20282;-77
2022/07/01 08:10:55;;;;;;;3.70;0.82;;;;;;;;;;5062501;28;20207;-78
2022/07/01 08:13:22;;;;;;;2.55;0.98;;;;;;;;;;5065805;28;20289;-77
2022/07/01 08:15:49;;;;;;;2.78;0.90;;;;;;;;;;5058721;28;20221;-77
2022/07/01 08:18:17;;;;;;;3.22;0.80;;;;;;;;;;5063008;28;20286;-77
2022/07/01 08:20:45;;;;;;;2.95;0.77;;;;;;;;;;5062944;28;20516;-76
2022/07/01 08:23:12;;;;;;;2.72;0.77;;;;;;;;;;5067387;28;20641;-76
2022/07/01 08:25:40;;;;;;;2.08;0.70;;;;;;;;;;5071453;28;20230;-76
2022/07/01 08:28:07;;;;;;;2.28;0.80;;;;;;;;;;5087670;28;20662;-77
2022/07/01 08:30:34;;;;;;;2.35;0.70;;;;;;;;;;5072647;28;20286;-77
2022/07/01 08:33:01;;;;;;;1.85;0.60;;;;;;;;;;5062813;28;20227;-77
2022/07/01 08:35:29;;;;;;;2.05;0.65;;;;;;;;;;5057991;28;20715;-77
2022/07/01 08:37:57;;;;;;;3.30;0.60;;;;;;;;;;5065629;28;20237;-77
2022/07/01 08:40:27;;;;;;;3.75;0.73;;;;;;;;;;5072367;28;20282;-76
2022/07/01 08:42:56;;;;;;;1.73;0.70;;;;;;;;;;5060556;28;20279;-77
2022/07/01 08:45:24;;;;;;;2.10;0.70;;;;;;;;;;5059475;28;20207;-77
2022/07/01 08:47:52;;;;;;;3.45;0.60;;;;;;;;;;5066143;28;20195;-77
2022/07/01 08:50:20;;;;;;;1.50;0.70;;;;;;;;;;5060770;28;20319;-77
2022/07/01 08:52:47;;;;;;;2.97;0.80;;;;;;;;;;5057462;28;20257;-76
2022/07/01 08:55:16;;;;;;;3.80;0.73;;;;;;;;;;5063858;28;20262;-77
2022/07/01 08:57:43;;;;;;;1.63;0.60;;;;;;;;;;5073872;28;20227;-77
2022/07/01 09:00:11;;;;;;;1.80;0.55;;;;;;;;;;5070236;28;20268;-77
2022/07/01 09:02:54;;;;;;;1.70;0.52;;;;;;;;;;5075018;28;20286;-77
2022/07/01 09:05:21;;;;;;;2.83;0.55;;;;;;;;;;5068248;28;20278;-77
2022/07/01 09:07:49;;;;;;;3.53;0.70;;;;;;;;;;5070851;28;20257;-76
2022/07/01 09:10:19;;;;;;;1.98;0.52;;;;;;;;;;5064672;28;20234;-76
2022/07/01 09:12:46;;;;;;;2.58;0.70;;;;;;;;;;5075531;28;20195;-78
2022/07/01 09:15:20;;;;;;;1.50;0.60;;;;;;;;;;5065655;28;20286;-77
2022/07/01 09:17:48;;;;;;;3.30;0.60;;;;;;;;;;5066666;28;20688;-77
2022/07/01 09:20:24;;;;;;;2.42;0.60;;;;;;;;;;5058046;28;20667;-76
2022/07/01 09:22:58;;;;;;;1.70;0.40;;;;;;;;;;5063475;28;20278;-76
2022/07/01 09:25:30;;;;;;;2.10;0.60;;;;;;;;;;5064380;28;20283;-76
2022/07/01 09:28:07;;;;;;;2.58;0.65;;;;;;;;;;5073509;28;20195;-77
2022/07/01 09:30:34;;;;;;;0.88;0.40;;;;;;;;;;5062469;28;20374;-76
2022/07/01 09:33:06;;;;;;;2.08;0.50;;;;;;;;;;5073723;28;20222;-76
2022/07/01 09:35:33;;;;;;;2.75;0.60;;;;;;;;;;5070920;28;20215;-77
2022/07/01 09:38:12;;;;;;;1.73;0.47;;;;;;;;;;5070931;28;20285;-77
2022/07/01 09:41:01;;;;;;;2.35;0.40;;;;;;;;;;5071169;28;20194;-76
2022/07/01 09:43:31;;;;;;;1.15;0.40;;;;;;;;;;5066008;28;20290;-76
2022/07/01 09:46:00;;;;;;;1.38;0.52;;;;;;;;;;5067472;28;20221;-77
2022/07/01 09:48:28;;;;;;;1.65;0.50;;;;;;;;;;5064327;28;20249;-76
2022/07/01 09:50:56;;;;;;;1.35;0.50;;;;;;;;;;5062448;28;20338;-76
2022/07/01 09:53:23;;;;;;;1.25;0.47;;;;;;;;;;5067402;28;20381;-76
2022/07/01 09:55:52;;;;;;;1.45;0.40;;;;;;;;;;5061496;28;20254;-76
2022/07/01 09:58:19;;;;;;;1.60;1.10;;;;;;;;;;5068591;28;20278;-76
2022/07/01 10:00:47;;;;;;;1.63;0.63;;;;;;;;;;5066767;28;20203;-76
2022/07/01 10:03:15;;;;;;;1.30;0.40;;;;;;;;;;5068129;28;20273;-76
2022/07/01 10:05:44;;;;;;;2.55;0.52;;;;;;;;;;5061198;28;20192;-76
2022/07/01 10:08:27;;;;;;;1.75;0.40;;;;;;;;;;5066886;28;20784;-76
2022/07/01 10:11:02;;;;;;;1.50;0.52;;;;;;;;;;5064427;28;20295;-77
2022/07/01 10:13:32;;;;;;;2.35;0.60;;;;;;;;;;5067877;28;20282;-77
2022/07/01 10:15:59;;;;;;;1.15;0.50;;;;;;;;;;5066315;28;20223;-76
2022/07/01 10:18:27;;;;;;;2.38;0.57;;;;;;;;;;5067285;28;20251;-76
2022/07/01 10:20:55;;;;;;;1.40;0.70;;;;;;;;;;5067443;28;20667;-76
2022/07/01 10:23:23;;;;;;;2.15;0.50;;;;;;;;;;5065999;28;20248;-76
2022/07/01 10:25:51;;;;;;;2.05;0.40;;;;;;;;;;5078298;28;20726;-77
2022/07/01 10:28:25;;;;;;;1.10;0.47;;;;;;;;;;5073646;28;20622;-76
2022/07/01 10:31:02;;;;;;;1.13;0.40;;;;;;;;;;5068852;28;20200;-76
2022/07/01 10:33:34;;;;;;;1.55;0.70;;;;;;;;;;5063301;28;20234;-76
2022/07/01 10:36:09;;;;;;;2.15;0.60;;;;;;;;;;5068560;28;20867;-75
2022/07/01 10:38:36;;;;;;;1.13;0.40;;;;;;;;;;5069819;28;20281;-75
2022/07/01 10:41:12;;;;;;;2.08;0.60;;;;;;;;;;5055003;28;20282;-75
2022/07/01 10:43:41;;;;;;;0.77;0.38;;;;;;;;;;5065403;28;20209;-76
2022/07/01 10:46:09;;;;;;;1.17;0.40;;;;;;;;;;5068399;28;20203;-76
2022/07/01 10:48:36;;;;;;;2.17;0.70;;;;;;;;;;5072152;28;20218;-77
2022/07/01 10:51:03;;;;;;;1.45;0.47;;;;;;;;;;5068690;28;20274;-76
2022/07/01 10:53:47;;;;;;;2.08;0.70;;;;;;;;;;5054829;28;20203;-76
2022/07/01 10:56:17;;;;;;;2.03;0.60;;;;;;;;;;5065899;28;20230;-76
2022/07/01 10:58:45;;;;;;;1.13;0.50;;;;;;;;;;5073305;28;20648;-76
2022/07/01 11:01:13;;;;;;;3.38;0.70;;;;;;;;;;5063036;28;20286;-75
2022/07/01 11:03:40;;;;;;;1.95;0.65;;;;;;;;;;5053552;28;20250;-75
2022/07/01 11:06:08;;;;;;;1.38;0.65;;;;;;;;;;5053268;28;20207;-76
2022/07/01 11:08:35;;;;;;;1.13;0.40;;;;;;;;;;5067731;28;20222;-76
2022/07/01 11:11:05;;;;;;;0.75;0.28;;;;;;;;;;5069819;28;20192;-75
2022/07/01 11:13:32;;;;;;;2.45;0.55;;;;;;;;;;5069488;28;20659;-76
2022/07/01 11:16:01;;;;;;;2.58;0.45;;;;;;;;;;5068885;28;20727;-76
2022/07/01 11:18:29;;;;;;;2.22;0.50;;;;;;;;;;5070795;28;20200;-76
2022/07/01 11:21:04;;;;;;;1.92;0.50;;;;;;;;;;5068341;28;20210;-75
2022/07/01 11:23:31;;;;;;;0.85;0.50;;;;;;;;;;5071926;28;20293;-75
2022/07/01 11:25:58;;;;;;;1.75;0.50;;;;;;;;;;5068096;28;20238;-76
2022/07/01 11:28:25;;;;;;;0.80;0.45;;;;;;;;;;5065246;28;20291;-76
2022/07/01 11:31:00;;;;;;;0.93;0.38;;;;;;;;;;5063791;28;20710;-75
2022/07/01 11:33:28;;;;;;;2.05;0.50;;;;;;;;;;5066389;28;20301;-75
2022/07/01 11:41:26;;;;;;;2.00;0.47;;;;;;;;;;5061953;28;20203;-75
2022/07/01 11:43:53;;;;;;;2.25;0.50;;;;;;;;;;5066585;28;20199;-76
2022/07/01 11:46:23;;;;;;;2.58;0.40;;;;;;;;;;5067080;28;20200;-75
2022/07/01 11:48:51;;;;;;;4.32;0.60;;;;;;;;;;5065030;28;20207;-75
2022/07/01 11:51:19;;;;;;;1.27;0.60;;;;;;;;;;5063971;28;20239;-76
2022/07/01 11:53:48;;;;;;;2.85;0.60;;;;;;;;;;5066939;28;20289;-76
2022/07/01 11:56:16;;;;;;;2.15;0.60;;;;;;;;;;5068775;28;20214;-75
2022/07/01 11:58:44;;;;;;;1.90;0.52;;;;;;;;;;5062572;28;20201;-75
2022/07/01 12:01:11;;;;;;;4.18;0.70;;;;;;;;;;5066871;28;20757;-76
2022/07/01 12:03:40;;;;;;;3.47;0.60;;;;;;;;;;5064553;28;20306;-75
2022/07/01 12:06:07;;;;;;;0.90;0.50;;;;;;;;;;5064612;28;20202;-76
2022/07/01 12:08:35;;;;;;;2.13;0.55;;;;;;;;;;5067122;28;20282;-75
2022/07/01 12:11:02;;;;;;;1.00;0.52;;;;;;;;;;5058284;28;20290;-76
2022/07/01 12:13:29;;;;;;;1.15;0.60;;;;;;;;;;5065640;28;20290;-75
2022/07/01 12:16:07;;;;;;;1.38;0.50;;;;;;;;;;5066886;28;20286;-75
2022/07/01 12:18:34;;;;;;;1.63;0.50;;;;;;;;;;5065870;28;20198;-75
2022/07/01 12:21:03;;;;;;;1.48;0.50;;;;;;;;;;5067202;28;20210;-76
2022/07/01 12:23:32;;;;;;;1.70;0.40;;;;;;;;;;5063488;28;20230;-76
2022/07/01 12:25:59;;;;;;;1.23;0.40;;;;;;;;;;5067232;28;20628;-75
2022/07/01 12:28:39;;;;;;;1.75;0.47;;;;;;;;;;5066873;28;20576;-75
2022/07/01 12:31:08;;;;;;;1.55;0.40;;;;;;;;;;5068203;28;20272;-75
2022/07/01 12:33:36;;;;;;;2.05;0.45;;;;;;;;;;5064868;28;20234;-76
2022/07/01 12:36:06;;;;;;;2.45;0.55;;;;;;;;;;5066340;28;20283;-74
2022/07/01 12:38:33;;;;;;;1.75;0.50;;;;;;;;;;5073685;28;20282;-75
2022/07/01 12:41:01;;;;;;;1.27;0.47;;;;;;;;;;5067517;28;20498;-75
2022/07/01 12:43:30;;;;;;;1.80;0.50;;;;;;;;;;5071679;28;20205;-75
2022/07/01 12:45:57;;;;;;;1.15;0.50;;;;;;;;;;5062897;28;20212;-76
2022/07/01 12:48:25;;;;;;;0.70;0.40;;;;;;;;;;5070265;28;20199;-75
2022/07/01 12:50:56;;;;;;;1.50;0.70;;;;;;;;;;5064490;28;20310;-76
2022/07/01 12:53:26;;;;;;;2.63;0.63;;;;;;;;;;5066345;28;20282;-76
2022/07/01 12:55:54;;;;;;;2.38;0.40;;;;;;;;;;5063976;28;20322;-75
2022/07/01 12:58:23;;;;;;;0.98;0.50;;;;;;;;;;5066351;28;20268;-75
2022/07/01 13:00:51;;;;;;;1.23;0.45;;;;;;;;;;5065038;28;20243;-76
2022/07/01 13:03:23;;;;;;;1.00;0.47;;;;;;;;;;5066385;28;20282;-75
2022/07/01 13:05:51;;;;;;;0.73;0.52;;;;;;;;;;5063430;28;20279;-75
2022/07/01 13:08:19;;;;;;;1.05;0.50;;;;;;;;;;5068560;28;20200;-76
2022/07/01 13:10:48;;;;;;;2.60;0.63;;;;;;;;;;5068453;28;20774;-75
2022/07/01 13:13:16;;;;;;;1.88;0.38;;;;;;;;;;5064122;28;20282;-76
2022/07/01 13:15:44;;;;;;;1.55;0.50;;;;;;;;;;5066906;28;20211;-75
2022/07/01 13:18:14;;;;;;;0.98;0.50;;;;;;;;;;5071421;28;20218;-75
2022/07/01 13:20:41;;;;;;;1.67;0.47;;;;;;;;;;5064589;28;20264;-75
2022/07/01 13:23:08;;;;;;;1.42;0.50;;;;;;;;;;5076060;28;20635;-75
2022/07/01 13:25:36;;;;;;;2.85;0.60;;;;;;;;;;5072215;28;20294;-75
2022/07/01 13:28:05;;;;;;;1.30;0.43;;;;;;;;;;5069737;28;20203;-75
2022/07/01 13:30:32;;;;;;;1.48;0.52;;;;;;;;;;5073043;28;20239;-75
2022/07/01 13:32:59;;;;;;;1.27;0.50;;;;;;;;;;5055086;28;20290;-75
2022/07/01 13:35:26;;;;;;;1.10;0.40;;;;;;;;;;5059359;28;20294;-75
2022/07/01 13:37:54;;;;;;;0.63;0.30;;;;;;;;;;5061181;28;20215;-75
2022/07/01 13:40:21;;;;;;;2.17;0.35;;;;;;;;;;5060253;28;20291;-75
2022/07/01 13:42:49;;;;;;;1.05;0.30;;;;;;;;;;5073403;28;20195;-75
2022/07/01 13:45:17;;;;;;;0.57;0.38;;;;;;;;;;5074197;28;20215;-75
2022/07/01 13:47:44;;;;;;;3.15;0.43;;;;;;;;;;5073848;28;20730;-75
2022/07/01 13:50:12;;;;;;;2.15;0.50;;;;;;;;;;5067567;28;20319;-75
2022/07/01 13:52:39;;;;;;;2.00;0.30;;;;;;;;;;5056793;28;20230;-75
2022/07/01 13:55:07;;;;;;;1.50;0.75;;;;;;;;;;5074485;28;20286;-75
2022/07/01 13:57:34;;;;;;;1.00;0.40;;;;;;;;;;5074347;28;20262;-75
2022/07/01 14:00:01;;;;;;;1.60;0.50;;;;;;;;;;5088959;28;20282;-75
2022/07/01 14:02:31;;;;;;;2.03;0.38;;;;;;;;;;5064930;28;20204;-75
2022/07/01 14:04:59;;;;;;;1.60;0.40;;;;;;;;;;5082364;28;20669;-75
2022/07/01 14:07:26;;;;;;;1.65;0.40;;;;;;;;;;5069907;28;20211;-75
2022/07/01 14:09:53;;;;;;;1.70;0.60;;;;;;;;;;5073677;28;20237;-75
2022/07/01 14:12:20;;;;;;;1.90;0.50;;;;;;;;;;5071536;28;20219;-75
2022/07/01 14:14:48;;;;;;;1.67;0.50;;;;;;;;;;5073309;28;20241;-75
2022/07/01 14:17:15;;;;;;;1.40;0.38;;;;;;;;;;5063275;28;20237;-75
2022/07/01 14:19:44;;;;;;;5.40;0.98;;;;;;;;;;5061156;28;20297;-75
2022/07/01 14:22:12;;;;;;;2.33;0.57;;;;;;;;;;5061180;28;20208;-75
2022/07/01 14:24:39;;;;;;;0.90;0.40;;;;;;;;;;5067856;28;20691;-75
2022/07/01 14:27:06;;;;;;;1.42;0.70;;;;;;;;;;5064700;28;20223;-75
2022/07/01 14:29:33;;;;;;;2.15;0.50;;;;;;;;;;5066029;28;20808;-76
2022/07/01 14:32:01;;;;;;;1.42;0.50;;;;;;;;;;5065090;28;20282;-75
2022/07/01 14:34:28;;;;;;;2.50;0.47;;;;;;;;;;5066998;28;20708;-75
2022/07/01 14:36:57;;;;;;;3.47;0.55;;;;;;;;;;5065179;28;20266;-76
2022/07/01 14:39:24;;;;;;;1.30;0.43;;;;;;;;;;5069104;28;20654;-75
2022/07/01 14:41:52;;;;;;;2.05;0.52;;;;;;;;;;5069592;28;20218;-76
2022/07/01 14:44:20;;;;;;;0.93;0.40;;;;;;;;;;5067732;28;20264;-76
2022/07/01 14:46:47;;;;;;;0.73;0.50;;;;;;;;;;5056412;28;20727;-76
2022/07/01 14:49:17;;;;;;;2.95;0.40;;;;;;;;;;5063374;28;20231;-76
2022/07/01 14:51:44;;;;;;;3.40;0.55;;;;;;;;;;5064806;28;20231;-75
2022/07/01 14:54:13;;;;;;;3.33;0.60;;;;;;;;;;5061909;28;20676;-75
2022/07/01 14:56:40;;;;;;;1.38;0.50;;;;;;;;;;5061999;28;20295;-75
2022/07/01 14:59:07;;;;;;;2.10;0.50;;;;;;;;;;5062392;28;20202;-76
2022/07/01 15:01:34;;;;;;;2.08;0.60;;;;;;;;;;5063054;28;20257;-75
2022/07/01 15:04:02;;;;;;;1.65;0.50;;;;;;;;;;5064173;28;20286;-75
2022/07/01 15:06:29;;;;;;;1.67;0.50;;;;;;;;;;5061734;28;20235;-75
2022/07/01 15:08:56;;;;;;;2.40;0.60;;;;;;;;;;5062747;28;20203;-75
2022/07/01 15:11:25;;;;;;;3.90;0.82;;;;;;;;;;5060114;28;20291;-75